createdAt,value
2022-09-23T00:00:05.207Z,4.93
2022-09-23T00:00:17.205Z,4.00
2022-09-23T00:00:29.343Z,3.25
2022-09-23T00:00:45.728Z,3.47
2022-09-23T00:01:03.127Z,3.47
2022-09-23T00:01:15.251Z,3.40
2022-09-23T00:01:27.484Z,3.72
2022-09-23T00:01:39.462Z,4.93
2022-09-23T00:01:51.470Z,4.50
2022-09-23T00:02:03.608Z,4.55
2022-09-23T00:02:16.700Z,4.90
2022-09-23T00:02:28.705Z,5.65
2022-09-23T00:02:40.772Z,5.13
2022-09-23T00:02:52.800Z,4.82
2022-09-23T00:03:05.048Z,3.90
2022-09-23T00:03:16.991Z,3.90
2022-09-23T00:03:30.635Z,3.63
2022-09-23T00:03:46.816Z,5.95
2022-09-23T00:04:00.028Z,6.85
2022-09-23T00:04:11.979Z,4.25
2022-09-23T00:04:23.926Z,5.30
2022-09-23T00:04:35.902Z,5.90
2022-09-23T00:04:47.797Z,5.65
2022-09-23T00:04:59.704Z,4.97
2022-09-23T00:05:11.602Z,5.03
2022-09-23T00:05:23.536Z,4.95
2022-09-23T00:05:35.658Z,4.10
2022-09-23T00:05:58.589Z,3.65
2022-09-23T00:06:13.473Z,4.20
2022-09-23T00:06:27.972Z,4.22
2022-09-23T00:06:40.060Z,5.18
2022-09-23T00:06:52.078Z,5.10
2022-09-23T00:07:04.044Z,4.90
2022-09-23T00:07:16.313Z,5.82
2022-09-23T00:07:28.220Z,4.82
2022-09-23T00:07:40.159Z,4.53
2022-09-23T00:07:52.122Z,5.10
2022-09-23T00:08:08.095Z,4.32
2022-09-23T00:08:20.045Z,4.43
2022-09-23T00:08:32.297Z,5.18
2022-09-23T00:08:44.863Z,4.20
2022-09-23T00:08:56.755Z,3.75
2022-09-23T00:09:08.643Z,3.83
2022-09-23T00:09:20.528Z,3.90
2022-09-23T00:09:32.565Z,3.83
2022-09-23T00:09:44.446Z,3.92
2022-09-23T00:09:56.398Z,3.90
2022-09-23T00:10:08.749Z,3.95
2022-09-23T00:10:21.594Z,4.57
2022-09-23T00:10:37.257Z,5.18
2022-09-23T00:10:49.162Z,4.68
2022-09-23T00:11:07.081Z,3.95
2022-09-23T00:11:22.094Z,4.05
2022-09-23T00:11:34.335Z,4.03
2022-09-23T00:11:46.211Z,4.20
2022-09-23T00:11:58.333Z,4.10
2022-09-23T00:12:10.415Z,3.97
2022-09-23T00:12:22.386Z,4.25
2022-09-23T00:12:34.258Z,5.10
2022-09-23T00:12:46.160Z,5.13
2022-09-23T00:12:58.771Z,4.60
2022-09-23T00:13:10.703Z,4.53
2022-09-23T00:13:24.393Z,4.60
2022-09-23T00:13:37.243Z,4.93
2022-09-23T00:13:52.998Z,6.03
2022-09-23T00:14:04.942Z,5.40
2022-09-23T00:14:17.503Z,4.00
2022-09-23T00:14:29.430Z,4.22
2022-09-23T00:14:41.322Z,3.85
2022-09-23T00:14:53.303Z,4.32
2022-09-23T00:15:05.656Z,5.32
2022-09-23T00:15:18.006Z,6.90
2022-09-23T00:15:31.100Z,5.85
2022-09-23T00:15:43.063Z,4.72
2022-09-23T00:15:54.958Z,4.93
2022-09-23T00:16:10.486Z,4.05
2022-09-23T00:16:25.699Z,5.20
2022-09-23T00:16:38.197Z,5.70
2022-09-23T00:16:50.351Z,5.45
2022-09-23T00:17:02.290Z,5.35
2022-09-23T00:17:14.284Z,7.25
2022-09-23T00:17:27.173Z,7.47
2022-09-23T00:17:40.318Z,5.85
2022-09-23T00:17:52.707Z,6.10
2022-09-23T00:18:04.633Z,5.07
2022-09-23T00:18:17.856Z,4.45
2022-09-23T00:18:29.731Z,3.80
2022-09-23T00:18:42.184Z,4.10
2022-09-23T00:18:54.765Z,4.50
2022-09-23T00:19:06.696Z,5.72
2022-09-23T00:19:18.598Z,5.80
2022-09-23T00:19:30.462Z,5.78
2022-09-23T00:19:42.556Z,4.30
2022-09-23T00:19:55.351Z,5.32
2022-09-23T00:20:09.280Z,5.82
2022-09-23T00:20:21.205Z,4.82
2022-09-23T00:20:35.157Z,4.57
2022-09-23T00:20:47.310Z,4.95
2022-09-23T00:21:04.579Z,6.05
2022-09-23T00:21:17.313Z,6.88
2022-09-23T00:21:29.423Z,5.93
2022-09-23T00:21:42.500Z,5.25
2022-09-23T00:21:56.661Z,4.38
2022-09-23T00:22:08.790Z,5.03
2022-09-23T00:22:21.223Z,5.43
2022-09-23T00:22:33.232Z,5.45
2022-09-23T00:22:45.596Z,5.40
2022-09-23T00:22:57.719Z,5.85
2022-09-23T00:23:09.652Z,5.60
2022-09-23T00:23:21.552Z,5.07
2022-09-23T00:23:34.203Z,4.50
2022-09-23T00:23:46.232Z,5.07
2022-09-23T00:23:58.590Z,5.07
2022-09-23T00:24:10.528Z,4.53
2022-09-23T00:24:23.463Z,4.88
2022-09-23T00:24:35.367Z,6.68
2022-09-23T00:24:47.387Z,6.57
2022-09-23T00:24:59.268Z,7.72
2022-09-23T00:25:11.936Z,6.55
2022-09-23T00:25:23.804Z,6.60
2022-09-23T00:25:35.675Z,5.32
2022-09-23T00:25:59.341Z,4.43
2022-09-23T00:26:15.617Z,5.47
2022-09-23T00:26:27.813Z,5.53
2022-09-23T00:26:39.779Z,4.43
2022-09-23T00:26:51.665Z,5.05
2022-09-23T00:27:03.744Z,5.85
2022-09-23T00:27:16.018Z,5.35
2022-09-23T00:27:28.991Z,5.57
2022-09-23T00:27:41.911Z,5.53
2022-09-23T00:27:53.993Z,5.45
2022-09-23T00:28:05.933Z,5.90
2022-09-23T00:28:17.808Z,6.13
2022-09-23T00:28:30.609Z,8.18
2022-09-23T00:28:43.125Z,7.43
2022-09-23T00:28:55.008Z,6.70
2022-09-23T00:29:06.924Z,5.57
2022-09-23T00:29:18.824Z,5.85
2022-09-23T00:29:31.620Z,5.43
2022-09-23T00:29:43.550Z,5.65
2022-09-23T00:29:55.500Z,4.95
2022-09-23T00:30:09.585Z,4.70
2022-09-23T00:30:23.384Z,4.40
2022-09-23T00:30:35.444Z,4.43
2022-09-23T00:30:47.412Z,4.78
2022-09-23T00:31:10.627Z,4.78
2022-09-23T00:31:25.316Z,9.23
2022-09-23T00:31:37.197Z,8.70
2022-09-23T00:31:49.175Z,4.28
2022-09-23T00:32:01.253Z,5.75
2022-09-23T00:32:13.341Z,6.47
2022-09-23T00:32:25.669Z,5.35
2022-09-23T00:32:38.054Z,4.53
2022-09-23T00:32:49.945Z,4.05
2022-09-23T00:33:01.807Z,4.50
2022-09-23T00:33:13.740Z,4.82
2022-09-23T00:33:25.611Z,6.60
2022-09-23T00:33:37.946Z,6.68
2022-09-23T00:33:59.282Z,6.97
2022-09-23T00:34:11.692Z,4.28
2022-09-23T00:34:23.580Z,5.75
2022-09-23T00:34:35.437Z,6.28
2022-09-23T00:34:47.910Z,5.32
2022-09-23T00:35:00.035Z,4.90
2022-09-23T00:35:11.934Z,4.65
2022-09-23T00:35:23.809Z,4.60
2022-09-23T00:35:35.704Z,4.50
2022-09-23T00:35:47.730Z,4.60
2022-09-23T00:36:04.504Z,4.45
2022-09-23T00:36:16.405Z,4.47
2022-09-23T00:36:29.521Z,4.93
2022-09-23T00:36:42.795Z,4.68
2022-09-23T00:36:54.650Z,4.78
2022-09-23T00:37:06.568Z,4.32
2022-09-23T00:37:19.669Z,5.05
2022-09-23T00:37:31.716Z,5.00
2022-09-23T00:37:43.598Z,4.90
2022-09-23T00:37:56.120Z,4.07
2022-09-23T00:38:08.060Z,3.97
2022-09-23T00:38:19.947Z,3.63
2022-09-23T00:38:33.829Z,3.90
2022-09-23T00:38:46.145Z,4.85
2022-09-23T00:38:58.361Z,5.40
2022-09-23T00:39:10.288Z,6.18
2022-09-23T00:39:22.972Z,5.75
2022-09-23T00:39:34.834Z,4.32
2022-09-23T00:39:46.867Z,6.68
2022-09-23T00:39:59.647Z,7.38
2022-09-23T00:40:13.062Z,5.82
2022-09-23T00:40:26.027Z,5.35
2022-09-23T00:40:43.568Z,4.63
2022-09-23T00:40:55.793Z,4.85
2022-09-23T00:41:07.859Z,5.13
2022-09-23T00:41:19.991Z,5.57
2022-09-23T00:41:32.665Z,7.82
2022-09-23T00:41:44.563Z,7.43
2022-09-23T00:41:56.462Z,7.75
2022-09-23T00:42:18.540Z,4.55
2022-09-23T00:42:30.521Z,4.43
2022-09-23T00:42:51.924Z,4.75
2022-09-23T00:43:04.646Z,4.75
2022-09-23T00:43:17.182Z,4.53
2022-09-23T00:43:49.945Z,3.60
2022-09-23T00:44:23.221Z,6.18
2022-09-23T00:44:48.104Z,4.35
2022-09-23T00:45:00.831Z,4.25
2022-09-23T00:45:12.884Z,3.90
2022-09-23T00:45:24.770Z,3.80
2022-09-23T00:45:36.717Z,3.80
2022-09-23T00:45:51.059Z,3.92
2022-09-23T00:46:03.630Z,4.25
2022-09-23T00:46:23.200Z,4.70
2022-09-23T00:46:39.964Z,4.75
2022-09-23T00:46:52.242Z,4.80
2022-09-23T00:47:04.325Z,4.60
2022-09-23T00:47:19.387Z,5.28
2022-09-23T00:47:33.625Z,5.50
2022-09-23T00:47:52.302Z,5.10
2022-09-23T00:48:05.003Z,4.37
2022-09-23T00:48:20.300Z,4.93
2022-09-23T00:48:32.302Z,6.20
2022-09-23T00:48:45.649Z,6.13
2022-09-23T00:49:07.213Z,6.28
2022-09-23T00:49:28.353Z,4.60
2022-09-23T00:49:40.535Z,4.15
2022-09-23T00:50:09.877Z,4.78
2022-09-23T00:50:35.039Z,3.78
2022-09-23T00:50:51.021Z,4.95
2022-09-23T00:51:04.691Z,5.72
2022-09-23T00:51:21.291Z,5.45
2022-09-23T00:51:38.554Z,4.50
2022-09-23T00:51:57.428Z,3.55
2022-09-23T00:52:15.368Z,4.80
2022-09-23T00:52:28.330Z,6.97
2022-09-23T00:52:40.545Z,6.47
2022-09-23T00:52:56.703Z,4.90
2022-09-23T00:53:12.419Z,3.88
2022-09-23T00:53:26.639Z,4.53
2022-09-23T00:53:39.719Z,5.28
2022-09-23T00:53:52.653Z,5.30
2022-09-23T00:54:06.220Z,5.28
2022-09-23T00:54:18.691Z,4.60
2022-09-23T00:54:30.971Z,4.82
2022-09-23T00:54:43.460Z,4.70
2022-09-23T00:54:57.592Z,4.32
2022-09-23T00:55:15.882Z,4.55
2022-09-23T00:55:34.537Z,4.47
2022-09-23T00:55:54.392Z,5.00
2022-09-23T00:56:10.132Z,5.00
2022-09-23T00:56:24.127Z,5.13
2022-09-23T00:56:38.864Z,5.63
2022-09-23T00:56:51.275Z,4.63
2022-09-23T00:57:05.597Z,5.20
2022-09-23T00:57:18.234Z,5.50
2022-09-23T00:57:31.169Z,5.05
2022-09-23T00:57:44.626Z,4.88
2022-09-23T00:57:59.114Z,4.57
2022-09-23T00:58:15.536Z,4.40
2022-09-23T00:58:31.583Z,4.45
2022-09-23T00:58:45.341Z,5.05
2022-09-23T00:58:57.326Z,4.43
2022-09-23T00:59:10.682Z,4.20
2022-09-23T00:59:24.333Z,4.47
2022-09-23T00:59:37.094Z,4.50
2022-09-23T00:59:50.858Z,4.75
2022-09-23T01:00:04.406Z,4.43
2022-09-23T01:00:16.399Z,4.60
2022-09-23T01:00:28.697Z,4.68
2022-09-23T01:00:42.049Z,4.90
2022-09-23T01:00:55.497Z,4.90
2022-09-23T01:01:07.933Z,6.45
2022-09-23T01:01:21.120Z,7.10
2022-09-23T01:01:33.166Z,5.57
2022-09-23T01:01:46.085Z,4.78
2022-09-23T01:02:00.227Z,5.20
2022-09-23T01:02:14.223Z,5.38
2022-09-23T01:02:28.107Z,4.60
2022-09-23T01:02:40.160Z,5.72
2022-09-23T01:02:52.737Z,5.95
2022-09-23T01:03:06.625Z,4.97
2022-09-23T01:03:19.568Z,4.25
2022-09-23T01:03:32.011Z,4.70
2022-09-23T01:03:45.423Z,4.90
2022-09-23T01:03:58.335Z,4.68
2022-09-23T01:04:10.256Z,4.53
2022-09-23T01:04:24.451Z,4.05
2022-09-23T01:04:36.602Z,4.47
2022-09-23T01:04:50.763Z,4.97
2022-09-23T01:05:06.112Z,5.72
2022-09-23T01:05:19.273Z,5.22
2022-09-23T01:05:33.455Z,4.97
2022-09-23T01:05:46.888Z,4.97
2022-09-23T01:05:59.559Z,4.38
2022-09-23T01:06:12.964Z,4.20
2022-09-23T01:06:25.247Z,4.38
2022-09-23T01:06:37.232Z,4.43
2022-09-23T01:06:49.362Z,4.57
2022-09-23T01:07:01.253Z,4.85
2022-09-23T01:07:13.632Z,5.00
2022-09-23T01:07:25.518Z,5.03
2022-09-23T01:07:37.493Z,4.97
2022-09-23T01:07:50.003Z,5.45
2022-09-23T01:08:04.756Z,6.88
2022-09-23T01:08:17.516Z,8.00
2022-09-23T01:08:29.755Z,7.68
2022-09-23T01:08:45.892Z,5.75
2022-09-23T01:08:57.775Z,4.50
2022-09-23T01:09:09.682Z,4.30
2022-09-23T01:09:22.961Z,6.32
2022-09-23T01:09:35.308Z,6.30
2022-09-23T01:09:48.591Z,4.72
2022-09-23T01:10:01.811Z,4.88
2022-09-23T01:10:16.795Z,4.97
2022-09-23T01:10:36.988Z,4.72
2022-09-23T01:10:48.813Z,4.60
2022-09-23T01:11:18.987Z,5.03
2022-09-23T01:11:48.313Z,4.93
2022-09-23T01:12:12.500Z,4.32
2022-09-23T01:12:42.701Z,5.72
2022-09-23T01:13:42.571Z,6.38
2022-09-23T01:14:06.639Z,5.35
2022-09-23T01:14:34.300Z,6.15
2022-09-23T01:14:57.951Z,5.40
2022-09-23T01:15:24.619Z,5.78
2022-09-23T01:15:45.795Z,4.22
2022-09-23T01:15:57.617Z,5.45
2022-09-23T01:16:15.998Z,6.50
2022-09-23T01:16:38.004Z,6.07
2022-09-23T01:17:04.389Z,6.35
2022-09-23T01:17:29.438Z,6.88
2022-09-23T01:17:50.336Z,6.35
2022-09-23T01:18:21.107Z,5.13
2022-09-23T01:18:35.645Z,6.93
2022-09-23T01:19:15.204Z,6.35
2022-09-23T01:19:36.168Z,4.80
2022-09-23T01:20:27.913Z,4.28
2022-09-23T01:20:42.428Z,5.78
2022-09-23T01:21:33.268Z,5.40
2022-09-23T01:21:58.367Z,4.25
2022-09-23T01:22:19.470Z,4.65
2022-09-23T01:22:51.546Z,4.43
2022-09-23T01:23:22.033Z,4.88
2022-09-23T01:23:55.446Z,6.45
2022-09-23T01:24:22.999Z,4.88
2022-09-23T01:24:51.251Z,5.22
2022-09-23T01:25:08.860Z,5.72
2022-09-23T01:25:48.511Z,5.97
2022-09-23T01:26:06.228Z,5.65
2022-09-23T01:26:39.511Z,5.35
2022-09-23T01:27:22.312Z,4.25
2022-09-23T01:27:58.762Z,4.57
2022-09-23T01:28:35.100Z,5.00
2022-09-23T01:29:15.594Z,6.70
2022-09-23T01:30:06.776Z,4.60
2022-09-23T01:30:47.569Z,6.32
2022-09-23T01:31:08.267Z,5.22
2022-09-23T01:31:31.957Z,5.05
2022-09-23T01:31:51.300Z,4.78
2022-09-23T01:32:37.820Z,6.63
2022-09-23T01:33:20.021Z,6.80
2022-09-23T01:33:53.079Z,8.10
2022-09-23T01:34:32.931Z,5.40
2022-09-23T01:34:47.710Z,7.50
2022-09-23T01:35:04.684Z,7.88
2022-09-23T01:35:38.465Z,5.78
2022-09-23T01:36:04.259Z,4.60
2022-09-23T01:36:27.980Z,5.60
2022-09-23T01:36:51.052Z,6.07
2022-09-23T01:37:31.723Z,7.38
2022-09-23T01:38:09.543Z,7.07
2022-09-23T01:38:32.731Z,5.50
2022-09-23T01:39:08.628Z,5.65
2022-09-23T01:39:37.889Z,8.43
2022-09-23T01:40:11.365Z,8.90
2022-09-23T01:40:42.512Z,5.97
2022-09-23T01:41:04.489Z,7.40
2022-09-23T01:41:37.521Z,8.80
2022-09-23T01:42:39.473Z,6.53
2022-09-23T01:43:04.453Z,7.05
2022-09-23T01:43:36.192Z,6.38
2022-09-23T01:43:53.173Z,5.75
2022-09-23T01:44:10.154Z,7.22
2022-09-23T01:44:48.090Z,6.15
2022-09-23T01:45:08.983Z,5.57
2022-09-23T01:45:43.398Z,5.22
2022-09-23T01:45:59.797Z,5.80
2022-09-23T01:46:23.184Z,5.67
2022-09-23T01:46:51.571Z,6.60
2022-09-23T01:47:15.289Z,6.25
2022-09-23T01:47:30.497Z,6.28
2022-09-23T01:47:51.651Z,6.07
2022-09-23T01:48:13.885Z,7.55
2022-09-23T01:48:46.512Z,7.95
2022-09-23T01:49:06.791Z,6.70
2022-09-23T01:49:34.408Z,7.00
2022-09-23T01:49:53.924Z,7.10
2022-09-23T01:50:28.705Z,8.52
2022-09-23T01:50:56.258Z,7.57
2022-09-23T01:51:19.027Z,7.30
2022-09-23T01:51:35.553Z,7.18
2022-09-23T01:51:59.908Z,6.25
2022-09-23T01:52:17.579Z,5.55
2022-09-23T01:52:40.283Z,6.47
2022-09-23T01:52:54.967Z,5.25
2022-09-23T01:53:14.674Z,5.43
2022-09-23T01:53:49.441Z,5.80
2022-09-23T01:54:15.853Z,5.45
2022-09-23T01:54:35.692Z,5.85
2022-09-23T01:54:56.563Z,6.45
2022-09-23T01:55:20.691Z,8.40
2022-09-23T01:55:38.300Z,7.32
2022-09-23T01:55:58.932Z,6.07
2022-09-23T01:56:17.739Z,5.75
2022-09-23T01:56:38.501Z,5.35
2022-09-23T01:57:01.581Z,6.20
2022-09-23T01:57:27.202Z,7.45
2022-09-23T01:57:44.813Z,5.85
2022-09-23T01:58:19.466Z,7.03
2022-09-23T01:58:55.897Z,8.63
2022-09-23T01:59:21.470Z,5.47
2022-09-23T01:59:53.498Z,5.15
2022-09-23T02:00:11.628Z,5.63
2022-09-23T02:00:24.512Z,5.40
2022-09-23T02:00:41.384Z,5.50
2022-09-23T02:00:59.369Z,5.50
2022-09-23T02:01:23.385Z,7.40
2022-09-23T02:01:41.295Z,7.40
2022-09-23T02:02:06.193Z,6.85
2022-09-23T02:02:28.961Z,5.95
2022-09-23T02:02:56.235Z,6.05
2022-09-23T02:03:15.291Z,8.27
2022-09-23T02:03:48.385Z,7.70
2022-09-23T02:04:08.730Z,7.78
2022-09-23T02:04:39.532Z,6.97
2022-09-23T02:05:11.040Z,6.95
2022-09-23T02:05:25.928Z,5.80
2022-09-23T02:05:43.480Z,5.65
2022-09-23T02:06:05.149Z,5.00
2022-09-23T02:06:23.167Z,6.00
2022-09-23T02:06:51.195Z,5.50
2022-09-23T02:07:10.629Z,6.30
2022-09-23T02:07:29.705Z,6.85
2022-09-23T02:07:50.203Z,8.02
2022-09-23T02:08:17.667Z,6.93
2022-09-23T02:08:35.609Z,7.40
2022-09-23T02:08:56.454Z,7.25
2022-09-23T02:09:15.117Z,5.60
2022-09-23T02:09:35.495Z,5.20
2022-09-23T02:09:57.821Z,6.05
2022-09-23T02:10:19.779Z,6.60
2022-09-23T02:10:37.337Z,7.55
2022-09-23T02:10:56.382Z,6.68
2022-09-23T02:11:15.955Z,7.25
2022-09-23T02:11:30.871Z,10.02
2022-09-23T02:11:48.059Z,12.82
2022-09-23T02:12:06.015Z,8.30
2022-09-23T02:12:20.488Z,5.85
2022-09-23T02:12:38.339Z,6.00
2022-09-23T02:12:54.820Z,6.43
2022-09-23T02:13:15.584Z,6.15
2022-09-23T02:13:32.503Z,5.47
2022-09-23T02:13:50.969Z,5.78
2022-09-23T02:14:06.804Z,6.78
2022-09-23T02:14:24.550Z,6.53
2022-09-23T02:14:44.320Z,6.20
2022-09-23T02:15:29.032Z,6.05
2022-09-23T02:15:50.435Z,5.70
2022-09-23T02:16:09.499Z,5.55
2022-09-23T02:16:30.181Z,6.80
2022-09-23T02:16:47.446Z,7.90
2022-09-23T02:17:08.689Z,7.25
2022-09-23T02:17:34.189Z,5.97
2022-09-23T02:17:52.168Z,6.07
2022-09-23T02:18:13.175Z,6.32
2022-09-23T02:18:34.045Z,6.95
2022-09-23T02:18:53.225Z,6.50
2022-09-23T02:19:13.228Z,6.53
2022-09-23T02:19:33.813Z,6.15
2022-09-23T02:19:50.504Z,7.95
2022-09-23T02:20:06.868Z,6.38
2022-09-23T02:20:39.497Z,6.13
2022-09-23T02:20:55.730Z,7.05
2022-09-23T02:21:09.494Z,7.05
2022-09-23T02:21:27.409Z,5.60
2022-09-23T02:21:52.752Z,6.60
2022-09-23T02:22:23.652Z,6.82
2022-09-23T02:22:56.809Z,5.82
2022-09-23T02:23:13.078Z,5.85
2022-09-23T02:23:31.911Z,6.22
2022-09-23T02:23:51.308Z,7.63
2022-09-23T02:24:12.711Z,6.88
2022-09-23T02:24:34.543Z,6.18
2022-09-23T02:24:46.682Z,7.53
2022-09-23T02:24:58.797Z,7.55
2022-09-23T02:25:12.494Z,6.90
2022-09-23T02:25:35.682Z,6.13
2022-09-23T02:25:56.482Z,7.00
2022-09-23T02:26:19.596Z,5.75
2022-09-23T02:26:49.748Z,7.00
2022-09-23T02:27:19.767Z,7.70
2022-09-23T02:27:50.452Z,5.85
2022-09-23T02:28:22.544Z,6.70
2022-09-23T02:28:53.419Z,6.22
2022-09-23T02:29:42.751Z,7.25
2022-09-23T02:30:09.420Z,6.10
2022-09-23T02:30:27.147Z,7.68
2022-09-23T02:30:49.311Z,8.23
2022-09-23T02:31:14.711Z,5.93
2022-09-23T02:32:00.141Z,5.93
2022-09-23T02:32:25.063Z,6.85
2022-09-23T02:32:55.539Z,5.45
2022-09-23T02:33:26.454Z,6.70
2022-09-23T02:33:55.389Z,7.65
2022-09-23T02:34:32.050Z,6.18
2022-09-23T02:35:10.066Z,5.28
2022-09-23T02:35:32.767Z,6.72
2022-09-23T02:36:15.135Z,5.63
2022-09-23T02:36:36.863Z,5.45
2022-09-23T02:36:53.069Z,6.80
2022-09-23T02:37:11.641Z,6.35
2022-09-23T02:37:43.556Z,6.82
2022-09-23T02:38:13.413Z,5.93
2022-09-23T02:38:36.071Z,5.75
2022-09-23T02:39:00.539Z,5.45
2022-09-23T02:39:14.370Z,4.70
2022-09-23T02:39:36.718Z,6.30
2022-09-23T02:40:00.577Z,6.50
2022-09-23T02:40:37.989Z,5.55
2022-09-23T02:41:04.587Z,4.63
2022-09-23T02:41:32.432Z,8.38
2022-09-23T02:42:10.055Z,6.35
2022-09-23T02:42:30.612Z,6.88
2022-09-23T02:42:47.184Z,5.60
2022-09-23T02:43:11.348Z,5.13
2022-09-23T02:43:42.798Z,5.28
2022-09-23T02:44:06.396Z,6.22
2022-09-23T02:44:19.930Z,7.35
2022-09-23T02:44:32.927Z,6.13
2022-09-23T02:44:44.812Z,6.97
2022-09-23T02:44:56.834Z,7.20
2022-09-23T02:45:09.019Z,6.38
2022-09-23T02:45:20.990Z,5.25
2022-09-23T02:45:33.866Z,5.05
2022-09-23T02:45:47.303Z,5.45
2022-09-23T02:46:00.359Z,6.30
2022-09-23T02:46:12.443Z,6.35
2022-09-23T02:46:24.508Z,5.32
2022-09-23T02:46:37.033Z,5.20
2022-09-23T02:46:52.242Z,5.38
2022-09-23T02:47:04.234Z,5.13
2022-09-23T02:47:20.447Z,5.70
2022-09-23T02:47:35.824Z,6.10
2022-09-23T02:47:53.252Z,5.00
2022-09-23T02:48:14.643Z,4.80
2022-09-23T02:48:32.350Z,5.45
2022-09-23T02:49:12.478Z,5.38
2022-09-23T02:49:29.658Z,5.75
2022-09-23T02:49:41.568Z,5.60
2022-09-23T02:49:56.229Z,5.53
2022-09-23T02:50:09.406Z,5.47
2022-09-23T02:50:22.539Z,6.18
2022-09-23T02:50:34.728Z,6.38
2022-09-23T02:50:47.697Z,5.80
2022-09-23T02:51:02.218Z,5.65
2022-09-23T02:51:14.639Z,5.43
2022-09-23T02:51:28.841Z,5.25
2022-09-23T02:51:41.483Z,5.85
2022-09-23T02:51:54.491Z,5.75
2022-09-23T02:52:07.511Z,6.32
2022-09-23T02:52:19.441Z,7.38
2022-09-23T02:52:32.545Z,7.20
2022-09-23T02:52:46.276Z,6.82
2022-09-23T02:52:58.881Z,6.53
2022-09-23T02:53:10.788Z,6.68
2022-09-23T02:53:23.991Z,7.03
2022-09-23T02:53:36.556Z,7.28
2022-09-23T02:53:48.605Z,6.82
2022-09-23T02:54:03.393Z,5.85
2022-09-23T02:54:20.283Z,5.13
2022-09-23T02:54:33.801Z,4.97
2022-09-23T02:54:45.772Z,5.80
2022-09-23T02:54:58.100Z,6.93
2022-09-23T02:55:13.024Z,6.15
2022-09-23T02:55:31.231Z,5.75
2022-09-23T02:55:43.496Z,7.07
2022-09-23T02:55:55.355Z,7.35
2022-09-23T02:56:16.068Z,6.93
2022-09-23T02:56:28.657Z,5.72
2022-09-23T02:56:41.073Z,7.07
2022-09-23T02:56:53.383Z,7.50
2022-09-23T02:57:07.694Z,7.00
2022-09-23T02:57:19.735Z,5.30
2022-09-23T02:57:32.162Z,5.15
2022-09-23T02:57:45.260Z,5.03
2022-09-23T02:58:01.391Z,5.55
2022-09-23T02:58:14.175Z,5.90
2022-09-23T02:58:26.243Z,5.63
2022-09-23T02:58:38.160Z,5.85
2022-09-23T02:58:52.958Z,6.38
2022-09-23T02:59:06.052Z,8.35
2022-09-23T02:59:20.220Z,8.05
2022-09-23T02:59:34.051Z,6.20
2022-09-23T02:59:46.671Z,7.20
2022-09-23T02:59:58.599Z,6.75
2022-09-23T03:00:11.267Z,5.72
2022-09-23T03:00:23.765Z,5.65
2022-09-23T03:01:06.040Z,5.65
2022-09-23T03:01:31.381Z,6.22
2022-09-23T03:01:49.145Z,6.60
2022-09-23T03:02:06.917Z,5.72
2022-09-23T03:02:33.951Z,6.13
2022-09-23T03:03:08.266Z,4.90
2022-09-23T03:03:33.974Z,5.72
2022-09-23T03:04:05.043Z,5.75
2022-09-23T03:04:50.746Z,5.10
2022-09-23T03:05:19.236Z,5.28
2022-09-23T03:05:37.989Z,5.20
2022-09-23T03:05:55.212Z,6.43
2022-09-23T03:06:36.789Z,5.90
2022-09-23T03:06:54.434Z,5.72
2022-09-23T03:07:24.304Z,5.28
2022-09-23T03:08:02.840Z,5.93
2022-09-23T03:09:18.827Z,6.20
2022-09-23T03:09:43.123Z,7.38
2022-09-23T03:10:21.816Z,6.05
2022-09-23T03:10:58.305Z,7.30
2022-09-23T03:11:13.387Z,5.93
2022-09-23T03:11:26.143Z,5.97
2022-09-23T03:11:42.737Z,5.63
2022-09-23T03:12:16.402Z,5.68
2022-09-23T03:12:42.323Z,6.78
2022-09-23T03:13:26.153Z,6.13
2022-09-23T03:14:16.813Z,6.82
2022-09-23T03:14:49.234Z,5.45
2022-09-23T03:15:10.053Z,7.15
2022-09-23T03:15:33.331Z,6.38
2022-09-23T03:16:06.087Z,5.85
2022-09-23T03:16:34.640Z,5.35
2022-09-23T03:17:03.490Z,5.80
2022-09-23T03:17:29.427Z,8.32
2022-09-23T03:18:08.165Z,6.30
2022-09-23T03:18:42.081Z,6.45
2022-09-23T03:19:19.726Z,5.75
2022-09-23T03:19:46.272Z,7.28
2022-09-23T03:20:15.333Z,7.18
2022-09-23T03:20:34.185Z,6.65
2022-09-23T03:21:03.105Z,6.32
2022-09-23T03:21:25.009Z,6.45
2022-09-23T03:21:55.289Z,6.65
2022-09-23T03:22:35.484Z,5.32
2022-09-23T03:22:54.526Z,7.32
2022-09-23T03:23:10.553Z,5.88
2022-09-23T03:23:31.283Z,6.32
2022-09-23T03:23:45.180Z,6.65
2022-09-23T03:24:00.549Z,6.25
2022-09-23T03:24:14.776Z,7.38
2022-09-23T03:24:31.170Z,7.15
2022-09-23T03:24:45.516Z,6.22
2022-09-23T03:25:05.883Z,6.03
2022-09-23T03:25:24.123Z,6.07
2022-09-23T03:25:40.146Z,5.05
2022-09-23T03:25:55.496Z,5.85
2022-09-23T03:26:13.564Z,5.93
2022-09-23T03:26:31.408Z,7.07
2022-09-23T03:26:47.032Z,8.35
2022-09-23T03:27:03.233Z,6.90
2022-09-23T03:27:20.026Z,8.45
2022-09-23T03:27:34.671Z,7.70
2022-09-23T03:27:46.575Z,6.65
2022-09-23T03:28:01.168Z,6.85
2022-09-23T03:28:16.481Z,6.60
2022-09-23T03:28:28.973Z,6.75
2022-09-23T03:28:44.298Z,8.02
2022-09-23T03:28:56.564Z,7.13
2022-09-23T03:29:11.733Z,5.40
2022-09-23T03:29:24.236Z,6.00
2022-09-23T03:29:36.921Z,6.43
2022-09-23T03:29:51.614Z,6.97
2022-09-23T03:30:06.784Z,6.63
2022-09-23T03:30:19.048Z,8.15
2022-09-23T03:30:37.152Z,7.93
2022-09-23T03:30:54.252Z,5.78
2022-09-23T03:31:06.192Z,6.65
2022-09-23T03:31:18.331Z,6.60
2022-09-23T03:31:32.289Z,6.30
2022-09-23T03:31:44.925Z,6.20
2022-09-23T03:31:57.984Z,7.50
2022-09-23T03:32:10.129Z,6.80
2022-09-23T03:32:26.739Z,5.13
2022-09-23T03:32:42.740Z,6.07
2022-09-23T03:32:57.028Z,6.75
2022-09-23T03:33:12.408Z,6.55
2022-09-23T03:33:28.793Z,6.50
2022-09-23T03:33:47.034Z,6.90
2022-09-23T03:34:01.837Z,5.40
2022-09-23T03:34:21.361Z,8.43
2022-09-23T03:34:35.317Z,8.35
2022-09-23T03:34:50.591Z,5.40
2022-09-23T03:35:04.836Z,6.45
2022-09-23T03:35:17.172Z,6.57
2022-09-23T03:35:32.654Z,5.90
2022-09-23T03:36:12.487Z,5.38
2022-09-23T03:36:49.979Z,7.30
2022-09-23T03:37:14.131Z,7.20
2022-09-23T03:37:32.350Z,7.35
2022-09-23T03:37:46.836Z,7.32
2022-09-23T03:38:11.968Z,7.78
2022-09-23T03:38:27.855Z,5.85
2022-09-23T03:38:45.180Z,6.82
2022-09-23T03:39:11.655Z,7.65
2022-09-23T03:39:32.046Z,6.95
2022-09-23T03:39:50.812Z,6.20
2022-09-23T03:40:23.979Z,5.60
2022-09-23T03:40:43.354Z,5.93
2022-09-23T03:40:58.036Z,5.57
2022-09-23T03:41:12.096Z,5.72
2022-09-23T03:41:32.657Z,6.57
2022-09-23T03:41:50.797Z,8.38
2022-09-23T03:42:24.559Z,9.57
2022-09-23T03:42:38.084Z,5.80
2022-09-23T03:42:50.361Z,5.85
2022-09-23T03:43:05.009Z,5.68
2022-09-23T03:43:17.027Z,6.15
2022-09-23T03:43:30.042Z,6.18
2022-09-23T03:43:44.122Z,6.38
2022-09-23T03:43:58.389Z,5.97
2022-09-23T03:44:11.975Z,5.38
2022-09-23T03:44:24.589Z,6.03
2022-09-23T03:44:40.445Z,7.30
2022-09-23T03:44:54.217Z,8.60
2022-09-23T03:45:11.077Z,7.22
2022-09-23T03:45:27.908Z,5.93
2022-09-23T03:45:42.556Z,7.05
2022-09-23T03:45:57.569Z,7.47
2022-09-23T03:46:09.769Z,7.53
2022-09-23T03:46:25.384Z,6.70
2022-09-23T03:46:37.489Z,5.95
2022-09-23T03:46:52.448Z,6.43
2022-09-23T03:47:04.514Z,7.03
2022-09-23T03:47:16.815Z,6.57
2022-09-23T03:47:28.823Z,6.32
2022-09-23T03:47:42.198Z,5.72
2022-09-23T03:47:54.196Z,7.70
2022-09-23T03:48:07.131Z,7.88
2022-09-23T03:48:21.345Z,6.80
2022-09-23T03:48:33.308Z,6.47
2022-09-23T03:48:45.882Z,6.40
2022-09-23T03:49:05.366Z,5.97
2022-09-23T03:49:24.047Z,6.18
2022-09-23T03:49:39.648Z,6.97
2022-09-23T03:49:52.160Z,7.55
2022-09-23T03:50:04.316Z,7.32
2022-09-23T03:50:20.798Z,5.97
2022-09-23T03:50:32.727Z,7.20
2022-09-23T03:50:44.609Z,7.25
2022-09-23T03:50:56.504Z,6.88
2022-09-23T03:51:23.657Z,6.00
2022-09-23T03:51:35.741Z,6.18
2022-09-23T03:51:47.630Z,5.80
2022-09-23T03:52:00.111Z,6.50
2022-09-23T03:52:12.028Z,6.45
2022-09-23T03:52:25.871Z,5.78
2022-09-23T03:52:39.648Z,6.40
2022-09-23T03:52:51.532Z,7.05
2022-09-23T03:53:03.408Z,6.35
2022-09-23T03:53:15.352Z,6.38
2022-09-23T03:53:27.234Z,6.25
2022-09-23T03:53:39.537Z,6.78
2022-09-23T03:53:51.434Z,6.85
2022-09-23T03:54:03.303Z,6.93
2022-09-23T03:54:15.662Z,7.07
2022-09-23T03:54:29.896Z,6.95
2022-09-23T03:54:41.786Z,7.30
2022-09-23T03:54:53.810Z,7.85
2022-09-23T03:55:07.046Z,8.85
2022-09-23T03:55:19.446Z,8.50
2022-09-23T03:55:32.175Z,7.13
2022-09-23T03:55:45.533Z,5.93
2022-09-23T03:55:57.404Z,7.22
2022-09-23T03:56:11.579Z,7.40
2022-09-23T03:56:23.490Z,7.63
2022-09-23T03:56:35.468Z,7.03
2022-09-23T03:56:47.856Z,6.78
2022-09-23T03:57:01.957Z,7.38
2022-09-23T03:57:14.344Z,7.82
2022-09-23T03:57:26.320Z,10.10
2022-09-23T03:57:38.430Z,9.32
2022-09-23T03:57:50.475Z,7.20
2022-09-23T03:58:04.720Z,6.88
2022-09-23T03:58:16.609Z,6.38
2022-09-23T03:58:28.669Z,6.35
2022-09-23T03:58:40.629Z,6.05
2022-09-23T03:58:52.508Z,6.82
2022-09-23T03:59:04.416Z,6.93
2022-09-23T03:59:16.641Z,6.68
2022-09-23T03:59:32.444Z,7.05
2022-09-23T03:59:44.356Z,7.95
2022-09-23T03:59:56.239Z,9.07
2022-09-23T04:00:09.442Z,8.77